Estación Meteorológica Peña el Pijo (Robertgarden) [ 09/24/17 17:53:44 CEST ]

Fecha Hora Presion(HPa) Temp (°C) Humedad % Rocio (°C) Viento ( m/s) Direccion Lluvia 1Hora(mm) Lluvia 24H(mm) LLuvia Total(mm)
2017-Aug-02 01:01:56 1012.900 24.6 40 10.1         1437.96
2017-Aug-02 02:01:50 1013.200 23.0 45 10.3         1437.96
2017-Aug-02 03:01:49 1013.000 21.8 50 10.9         1437.96
2017-Aug-02 04:01:27 1012.800 19.5 55 10.2         1437.96
2017-Aug-02 05:01:29 1012.000 17.9 59 9.7         1437.96
2017-Aug-02 06:01:36 1012.400 16.8 63 9.7         1437.96
2017-Aug-02 07:01:28 1012.700 15.9 66 9.6         1437.96
2017-Aug-02 08:01:30 1012.500 15.8 69 10.2         1437.96
2017-Aug-02 09:01:40 1012.800 19.3 65 12.5         1437.96
2017-Aug-02 10:01:37 1012.800 22.9 59 14.4         1437.96
2017-Aug-02 11:01:47 1012.500 25.9 50 14.7         1437.96
2017-Aug-02 12:01:38 1012.400 29.2 42 15.0         1437.96
2017-Aug-02 13:01:43 1012.300 32.1 34 14.1         1437.96
2017-Aug-02 14:01:59 1012.000 31.4 34 13.5         1437.96
2017-Aug-02 15:01:39 1011.900 33.5 32 14.5         1437.96
2017-Aug-02 16:02:01 1011.500 34.8 30 14.7         1437.96
2017-Aug-02 17:01:47 1011.200 37.4 29 16.3         1437.96
2017-Aug-02 18:01:49 1011.200 35.3 33 16.5         1437.96
2017-Aug-02 19:01:55 1011.500 31.0 42 16.6         1437.96
2017-Aug-02 20:01:43 1011.800 30.6 44 16.9         1437.96
2017-Aug-02 21:01:53 1012.400 27.9 50 16.5         1437.96
2017-Aug-02 22:01:44 1013.300 25.9 55 16.1         1437.96
2017-Aug-02 23:01:50 1014.000 24.6 59 16.1         1437.96

Temperatura Máxima:37°    Temperatura Mínima:15°
Presión Máxima:1014.000 Hpa    Presión Mínima:1011.200 Hpa


Volver